sensor_id;sensor_type;location;lat;lon;timestamp;P1;durP1;ratioP1;P2;durP2;ratioP2
3547;SDS011;1788;49.400;11.092;2023-02-15T00:02:11;20.87;;;10.23;;
3547;SDS011;1788;49.400;11.092;2023-02-15T00:04:38;20.90;;;9.43;;
3547;SDS011;1788;49.400;11.092;2023-02-15T00:07:05;23.67;;;11.03;;
3547;SDS011;1788;49.400;11.092;2023-02-15T00:09:32;17.30;;;9.37;;
3547;SDS011;1788;49.400;11.092;2023-02-15T00:11:59;17.43;;;9.53;;
3547;SDS011;1788;49.400;11.092;2023-02-15T00:14:26;17.50;;;9.90;;
3547;SDS011;1788;49.400;11.092;2023-02-15T00:16:52;21.10;;;10.10;;
3547;SDS011;1788;49.400;11.092;2023-02-15T00:19:19;19.43;;;9.67;;
3547;SDS011;1788;49.400;11.092;2023-02-15T00:21:46;18.70;;;9.43;;
3547;SDS011;1788;49.400;11.092;2023-02-15T00:24:14;18.53;;;9.40;;
3547;SDS011;1788;49.400;11.092;2023-02-15T00:26:40;21.80;;;10.40;;
3547;SDS011;1788;49.400;11.092;2023-02-15T00:29:07;19.67;;;9.70;;
3547;SDS011;1788;49.400;11.092;2023-02-15T00:31:34;18.93;;;8.83;;
3547;SDS011;1788;49.400;11.092;2023-02-15T00:36:27;20.80;;;9.93;;
3547;SDS011;1788;49.400;11.092;2023-02-15T00:38:54;18.77;;;9.03;;
3547;SDS011;1788;49.400;11.092;2023-02-15T00:41:21;18.23;;;8.60;;
3547;SDS011;1788;49.400;11.092;2023-02-15T00:43:47;18.90;;;9.60;;
3547;SDS011;1788;49.400;11.092;2023-02-15T00:46:15;20.57;;;9.17;;
3547;SDS011;1788;49.400;11.092;2023-02-15T00:48:41;20.83;;;10.33;;
3547;SDS011;1788;49.400;11.092;2023-02-15T00:51:09;18.27;;;9.83;;
3547;SDS011;1788;49.400;11.092;2023-02-15T00:53:35;19.77;;;10.07;;
3547;SDS011;1788;49.400;11.092;2023-02-15T00:56:03;20.50;;;10.10;;
3547;SDS011;1788;49.400;11.092;2023-02-15T00:58:29;19.50;;;10.47;;
3547;SDS011;1788;49.400;11.092;2023-02-15T01:01:01;21.87;;;10.20;;
3547;SDS011;1788;49.400;11.092;2023-02-15T01:03:22;18.03;;;9.23;;
3547;SDS011;1788;49.400;11.092;2023-02-15T01:05:49;20.40;;;9.03;;
3547;SDS011;1788;49.400;11.092;2023-02-15T01:08:16;21.77;;;9.93;;
3547;SDS011;1788;49.400;11.092;2023-02-15T01:10:43;22.97;;;10.43;;
3547;SDS011;1788;49.400;11.092;2023-02-15T01:13:10;22.90;;;10.77;;
3547;SDS011;1788;49.400;11.092;2023-02-15T01:15:37;19.17;;;10.90;;
3547;SDS011;1788;49.400;11.092;2023-02-15T01:18:04;25.53;;;10.50;;
3547;SDS011;1788;49.400;11.092;2023-02-15T01:20:33;18.83;;;9.30;;
3547;SDS011;1788;49.400;11.092;2023-02-15T01:22:58;20.97;;;10.37;;
3547;SDS011;1788;49.400;11.092;2023-02-15T01:25:24;16.97;;;8.60;;
3547;SDS011;1788;49.400;11.092;2023-02-15T01:27:51;19.73;;;10.30;;
3547;SDS011;1788;49.400;11.092;2023-02-15T01:30:17;20.83;;;9.37;;
3547;SDS011;1788;49.400;11.092;2023-02-15T01:32:44;23.07;;;10.43;;
3547;SDS011;1788;49.400;11.092;2023-02-15T01:35:11;20.30;;;10.70;;
3547;SDS011;1788;49.400;11.092;2023-02-15T01:37:37;21.33;;;9.93;;
3547;SDS011;1788;49.400;11.092;2023-02-15T01:40:05;15.27;;;9.03;;
3547;SDS011;1788;49.400;11.092;2023-02-15T01:42:31;20.90;;;9.80;;
3547;SDS011;1788;49.400;11.092;2023-02-15T01:44:58;24.83;;;10.30;;
3547;SDS011;1788;49.400;11.092;2023-02-15T01:49:56;27.33;;;10.70;;
3547;SDS011;1788;49.400;11.092;2023-02-15T01:52:18;18.67;;;10.23;;
3547;SDS011;1788;49.400;11.092;2023-02-15T01:54:44;19.03;;;9.13;;
3547;SDS011;1788;49.400;11.092;2023-02-15T01:57:12;21.20;;;9.03;;
3547;SDS011;1788;49.400;11.092;2023-02-15T01:59:39;21.77;;;10.30;;
3547;SDS011;1788;49.400;11.092;2023-02-15T02:02:05;19.67;;;9.47;;
3547;SDS011;1788;49.400;11.092;2023-02-15T02:04:34;19.47;;;9.73;;
3547;SDS011;1788;49.400;11.092;2023-02-15T02:06:59;15.73;;;9.30;;
3547;SDS011;1788;49.400;11.092;2023-02-15T02:09:26;17.83;;;9.40;;
3547;SDS011;1788;49.400;11.092;2023-02-15T02:11:53;17.73;;;9.33;;
3547;SDS011;1788;49.400;11.092;2023-02-15T02:14:21;19.97;;;8.77;;
3547;SDS011;1788;49.400;11.092;2023-02-15T02:19:22;18.13;;;8.87;;
3547;SDS011;1788;49.400;11.092;2023-02-15T02:29:06;17.87;;;9.07;;
3547;SDS011;1788;49.400;11.092;2023-02-15T02:31:31;18.93;;;10.13;;
3547;SDS011;1788;49.400;11.092;2023-02-15T02:46:11;19.93;;;8.37;;
3547;SDS011;1788;49.400;11.092;2023-02-15T02:48:36;16.67;;;8.20;;
3547;SDS011;1788;49.400;11.092;2023-02-15T02:51:03;15.47;;;7.60;;
3547;SDS011;1788;49.400;11.092;2023-02-15T02:53:30;17.10;;;8.27;;
3547;SDS011;1788;49.400;11.092;2023-02-15T02:55:58;15.90;;;8.63;;
3547;SDS011;1788;49.400;11.092;2023-02-15T02:58:26;18.93;;;9.43;;
3547;SDS011;1788;49.400;11.092;2023-02-15T03:00:52;19.60;;;8.77;;
3547;SDS011;1788;49.400;11.092;2023-02-15T03:05:45;19.20;;;9.27;;
3547;SDS011;1788;49.400;11.092;2023-02-15T03:08:10;13.23;;;7.63;;
3547;SDS011;1788;49.400;11.092;2023-02-15T03:10:38;14.93;;;8.20;;
3547;SDS011;1788;49.400;11.092;2023-02-15T03:13:04;14.37;;;7.77;;
3547;SDS011;1788;49.400;11.092;2023-02-15T03:15:34;17.33;;;8.90;;
3547;SDS011;1788;49.400;11.092;2023-02-15T03:17:59;18.30;;;8.23;;
3547;SDS011;1788;49.400;11.092;2023-02-15T03:20:28;15.63;;;7.90;;
3547;SDS011;1788;49.400;11.092;2023-02-15T03:22:53;14.17;;;7.93;;
3547;SDS011;1788;49.400;11.092;2023-02-15T03:25:20;13.47;;;7.10;;
3547;SDS011;1788;49.400;11.092;2023-02-15T03:27:47;13.10;;;6.97;;
3547;SDS011;1788;49.400;11.092;2023-02-15T03:30:12;14.33;;;7.70;;
3547;SDS011;1788;49.400;11.092;2023-02-15T03:32:39;14.53;;;7.87;;
3547;SDS011;1788;49.400;11.092;2023-02-15T03:35:06;15.53;;;8.17;;
3547;SDS011;1788;49.400;11.092;2023-02-15T03:39:59;15.57;;;7.80;;
3547;SDS011;1788;49.400;11.092;2023-02-15T03:42:28;16.63;;;7.33;;
3547;SDS011;1788;49.400;11.092;2023-02-15T03:44:54;16.33;;;7.40;;
3547;SDS011;1788;49.400;11.092;2023-02-15T03:47:21;15.93;;;7.63;;
3547;SDS011;1788;49.400;11.092;2023-02-15T03:52:14;12.73;;;6.70;;
3547;SDS011;1788;49.400;11.092;2023-02-15T03:54:41;15.40;;;7.10;;
3547;SDS011;1788;49.400;11.092;2023-02-15T03:57:10;12.23;;;7.10;;
3547;SDS011;1788;49.400;11.092;2023-02-15T03:59:35;11.53;;;7.13;;
3547;SDS011;1788;49.400;11.092;2023-02-15T04:04:36;10.43;;;6.33;;
3547;SDS011;1788;49.400;11.092;2023-02-15T04:06:55;13.67;;;7.17;;
3547;SDS011;1788;49.400;11.092;2023-02-15T04:09:22;12.00;;;7.00;;
3547;SDS011;1788;49.400;11.092;2023-02-15T04:11:49;14.90;;;8.00;;
3547;SDS011;1788;49.400;11.092;2023-02-15T04:14:16;13.20;;;7.17;;
3547;SDS011;1788;49.400;11.092;2023-02-15T04:16:42;14.80;;;7.93;;
3547;SDS011;1788;49.400;11.092;2023-02-15T04:19:09;14.47;;;7.50;;
3547;SDS011;1788;49.400;11.092;2023-02-15T04:21:36;16.80;;;7.67;;
3547;SDS011;1788;49.400;11.092;2023-02-15T04:24:03;14.20;;;7.67;;
3547;SDS011;1788;49.400;11.092;2023-02-15T04:26:30;14.23;;;7.77;;
3547;SDS011;1788;49.400;11.092;2023-02-15T04:28:56;12.83;;;6.90;;
3547;SDS011;1788;49.400;11.092;2023-02-15T04:31:23;14.43;;;7.30;;
3547;SDS011;1788;49.400;11.092;2023-02-15T04:33:49;16.83;;;7.73;;
3547;SDS011;1788;49.400;11.092;2023-02-15T04:36:17;17.20;;;8.07;;
3547;SDS011;1788;49.400;11.092;2023-02-15T04:38:43;17.77;;;8.00;;
3547;SDS011;1788;49.400;11.092;2023-02-15T04:41:10;17.10;;;9.43;;
3547;SDS011;1788;49.400;11.092;2023-02-15T04:43:37;13.70;;;7.63;;
3547;SDS011;1788;49.400;11.092;2023-02-15T04:46:03;19.73;;;8.50;;
3547;SDS011;1788;49.400;11.092;2023-02-15T04:48:31;14.53;;;8.00;;
3547;SDS011;1788;49.400;11.092;2023-02-15T04:50:57;13.23;;;7.00;;
3547;SDS011;1788;49.400;11.092;2023-02-15T04:53:24;16.90;;;8.10;;
3547;SDS011;1788;49.400;11.092;2023-02-15T04:55:50;18.63;;;8.40;;
3547;SDS011;1788;49.400;11.092;2023-02-15T04:58:17;18.13;;;8.40;;
3547;SDS011;1788;49.400;11.092;2023-02-15T05:00:44;19.90;;;8.50;;
3547;SDS011;1788;49.400;11.092;2023-02-15T05:03:11;20.90;;;8.87;;
3547;SDS011;1788;49.400;11.092;2023-02-15T05:05:38;16.97;;;8.37;;
3547;SDS011;1788;49.400;11.092;2023-02-15T05:08:06;16.20;;;9.17;;
3547;SDS011;1788;49.400;11.092;2023-02-15T05:10:34;22.23;;;10.10;;
3547;SDS011;1788;49.400;11.092;2023-02-15T05:13:01;15.63;;;9.13;;
3547;SDS011;1788;49.400;11.092;2023-02-15T05:15:27;20.63;;;9.97;;
3547;SDS011;1788;49.400;11.092;2023-02-15T05:17:54;15.33;;;8.87;;
3547;SDS011;1788;49.400;11.092;2023-02-15T05:20:20;21.07;;;9.43;;
3547;SDS011;1788;49.400;11.092;2023-02-15T05:22:48;24.00;;;10.73;;
3547;SDS011;1788;49.400;11.092;2023-02-15T05:25:15;22.50;;;11.10;;
3547;SDS011;1788;49.400;11.092;2023-02-15T05:27:42;20.23;;;9.40;;
3547;SDS011;1788;49.400;11.092;2023-02-15T05:30:09;19.60;;;9.57;;
3547;SDS011;1788;49.400;11.092;2023-02-15T05:32:37;20.73;;;9.97;;
3547;SDS011;1788;49.400;11.092;2023-02-15T05:35:04;20.87;;;9.33;;
3547;SDS011;1788;49.400;11.092;2023-02-15T05:37:30;20.37;;;9.30;;
3547;SDS011;1788;49.400;11.092;2023-02-15T05:39:58;20.47;;;10.23;;
3547;SDS011;1788;49.400;11.092;2023-02-15T05:42:24;19.27;;;9.30;;
3547;SDS011;1788;49.400;11.092;2023-02-15T05:44:52;21.50;;;10.37;;
3547;SDS011;1788;49.400;11.092;2023-02-15T05:47:20;20.07;;;10.00;;
3547;SDS011;1788;49.400;11.092;2023-02-15T05:49:47;17.27;;;8.53;;
3547;SDS011;1788;49.400;11.092;2023-02-15T05:52:14;19.43;;;9.33;;
3547;SDS011;1788;49.400;11.092;2023-02-15T05:54:41;15.87;;;8.70;;
3547;SDS011;1788;49.400;11.092;2023-02-15T05:57:08;22.87;;;11.63;;
3547;SDS011;1788;49.400;11.092;2023-02-15T05:59:34;23.63;;;10.97;;
3547;SDS011;1788;49.400;11.092;2023-02-15T06:02:01;21.47;;;10.73;;
3547;SDS011;1788;49.400;11.092;2023-02-15T06:04:28;20.90;;;9.77;;
3547;SDS011;1788;49.400;11.092;2023-02-15T06:06:55;15.03;;;8.17;;
3547;SDS011;1788;49.400;11.092;2023-02-15T06:09:22;20.50;;;9.50;;
3547;SDS011;1788;49.400;11.092;2023-02-15T06:11:49;17.03;;;8.80;;
3547;SDS011;1788;49.400;11.092;2023-02-15T06:14:15;20.90;;;10.00;;
3547;SDS011;1788;49.400;11.092;2023-02-15T06:16:42;22.77;;;10.43;;
3547;SDS011;1788;49.400;11.092;2023-02-15T06:19:08;18.33;;;9.70;;
3547;SDS011;1788;49.400;11.092;2023-02-15T06:21:35;15.87;;;8.77;;
3547;SDS011;1788;49.400;11.092;2023-02-15T06:24:02;19.77;;;9.00;;
3547;SDS011;1788;49.400;11.092;2023-02-15T06:26:28;22.80;;;10.03;;
3547;SDS011;1788;49.400;11.092;2023-02-15T06:28:55;18.10;;;8.67;;
3547;SDS011;1788;49.400;11.092;2023-02-15T06:31:22;15.83;;;8.70;;
3547;SDS011;1788;49.400;11.092;2023-02-15T06:33:49;18.47;;;9.37;;
3547;SDS011;1788;49.400;11.092;2023-02-15T06:36:17;21.03;;;10.13;;
3547;SDS011;1788;49.400;11.092;2023-02-15T06:38:45;17.23;;;9.43;;
3547;SDS011;1788;49.400;11.092;2023-02-15T06:41:11;17.57;;;8.90;;
3547;SDS011;1788;49.400;11.092;2023-02-15T06:43:38;17.33;;;7.47;;
3547;SDS011;1788;49.400;11.092;2023-02-15T06:46:05;22.27;;;9.57;;
3547;SDS011;1788;49.400;11.092;2023-02-15T06:48:31;17.30;;;9.70;;
3547;SDS011;1788;49.400;11.092;2023-02-15T06:50:59;18.30;;;9.87;;
3547;SDS011;1788;49.400;11.092;2023-02-15T06:53:25;19.47;;;9.30;;
3547;SDS011;1788;49.400;11.092;2023-02-15T06:55:52;18.63;;;8.97;;
3547;SDS011;1788;49.400;11.092;2023-02-15T06:58:18;17.13;;;8.43;;
3547;SDS011;1788;49.400;11.092;2023-02-15T07:00:45;22.33;;;10.63;;
3547;SDS011;1788;49.400;11.092;2023-02-15T07:03:13;18.57;;;9.13;;
3547;SDS011;1788;49.400;11.092;2023-02-15T07:05:39;23.93;;;10.73;;
3547;SDS011;1788;49.400;11.092;2023-02-15T07:08:06;18.70;;;8.47;;
3547;SDS011;1788;49.400;11.092;2023-02-15T07:10:33;20.83;;;10.00;;
3547;SDS011;1788;49.400;11.092;2023-02-15T07:13:01;18.70;;;9.67;;
3547;SDS011;1788;49.400;11.092;2023-02-15T07:15:28;20.53;;;9.73;;
3547;SDS011;1788;49.400;11.092;2023-02-15T07:17:56;25.67;;;10.40;;
3547;SDS011;1788;49.400;11.092;2023-02-15T07:20:22;16.10;;;9.37;;
3547;SDS011;1788;49.400;11.092;2023-02-15T07:22:48;19.77;;;8.97;;
3547;SDS011;1788;49.400;11.092;2023-02-15T07:25:15;20.37;;;9.50;;
3547;SDS011;1788;49.400;11.092;2023-02-15T07:27:41;17.87;;;9.70;;
3547;SDS011;1788;49.400;11.092;2023-02-15T07:30:10;19.70;;;10.33;;
3547;SDS011;1788;49.400;11.092;2023-02-15T07:32:35;23.50;;;9.70;;
3547;SDS011;1788;49.400;11.092;2023-02-15T07:35:03;20.67;;;8.90;;
3547;SDS011;1788;49.400;11.092;2023-02-15T07:37:29;17.10;;;9.83;;
3547;SDS011;1788;49.400;11.092;2023-02-15T07:39:57;22.30;;;9.67;;
3547;SDS011;1788;49.400;11.092;2023-02-15T07:42:24;19.97;;;9.80;;
3547;SDS011;1788;49.400;11.092;2023-02-15T07:44:51;21.43;;;9.47;;
3547;SDS011;1788;49.400;11.092;2023-02-15T07:47:19;22.17;;;10.27;;
3547;SDS011;1788;49.400;11.092;2023-02-15T07:49:46;22.63;;;9.97;;
3547;SDS011;1788;49.400;11.092;2023-02-15T07:52:13;21.27;;;10.47;;
3547;SDS011;1788;49.400;11.092;2023-02-15T07:54:39;19.00;;;9.40;;
3547;SDS011;1788;49.400;11.092;2023-02-15T07:57:07;16.83;;;9.57;;
3547;SDS011;1788;49.400;11.092;2023-02-15T07:59:33;27.83;;;10.87;;
3547;SDS011;1788;49.400;11.092;2023-02-15T08:02:00;21.77;;;9.60;;
3547;SDS011;1788;49.400;11.092;2023-02-15T08:04:27;21.03;;;9.80;;
3547;SDS011;1788;49.400;11.092;2023-02-15T08:06:53;25.73;;;11.33;;
3547;SDS011;1788;49.400;11.092;2023-02-15T08:09:20;25.33;;;11.77;;
3547;SDS011;1788;49.400;11.092;2023-02-15T08:11:47;16.23;;;8.60;;
3547;SDS011;1788;49.400;11.092;2023-02-15T08:14:15;18.83;;;9.47;;
3547;SDS011;1788;49.400;11.092;2023-02-15T08:19:08;24.20;;;10.37;;
3547;SDS011;1788;49.400;11.092;2023-02-15T08:21:34;23.10;;;11.03;;
3547;SDS011;1788;49.400;11.092;2023-02-15T08:24:01;21.03;;;10.00;;
3547;SDS011;1788;49.400;11.092;2023-02-15T08:26:29;21.87;;;10.90;;
3547;SDS011;1788;49.400;11.092;2023-02-15T08:28:55;21.67;;;11.27;;
3547;SDS011;1788;49.400;11.092;2023-02-15T08:31:23;16.77;;;10.23;;
3547;SDS011;1788;49.400;11.092;2023-02-15T08:33:50;17.83;;;8.90;;
3547;SDS011;1788;49.400;11.092;2023-02-15T08:36:17;21.40;;;10.63;;
3547;SDS011;1788;49.400;11.092;2023-02-15T08:38:42;19.43;;;9.87;;
3547;SDS011;1788;49.400;11.092;2023-02-15T08:41:10;21.70;;;9.70;;
3547;SDS011;1788;49.400;11.092;2023-02-15T08:43:36;20.53;;;11.30;;
3547;SDS011;1788;49.400;11.092;2023-02-15T08:46:03;18.77;;;9.77;;
3547;SDS011;1788;49.400;11.092;2023-02-15T08:48:29;23.43;;;10.33;;
3547;SDS011;1788;49.400;11.092;2023-02-15T08:50:56;23.87;;;10.60;;
3547;SDS011;1788;49.400;11.092;2023-02-15T08:53:23;20.00;;;10.40;;
3547;SDS011;1788;49.400;11.092;2023-02-15T08:58:17;29.27;;;14.70;;
3547;SDS011;1788;49.400;11.092;2023-02-15T09:00:44;19.37;;;9.03;;
3547;SDS011;1788;49.400;11.092;2023-02-15T09:03:10;13.70;;;8.37;;
3547;SDS011;1788;49.400;11.092;2023-02-15T09:05:38;20.27;;;9.90;;
3547;SDS011;1788;49.400;11.092;2023-02-15T09:08:04;21.13;;;10.33;;
3547;SDS011;1788;49.400;11.092;2023-02-15T09:10:32;18.60;;;10.27;;
3547;SDS011;1788;49.400;11.092;2023-02-15T09:12:58;19.77;;;10.17;;
3547;SDS011;1788;49.400;11.092;2023-02-15T09:15:25;17.77;;;9.97;;
3547;SDS011;1788;49.400;11.092;2023-02-15T09:17:52;20.43;;;9.30;;
3547;SDS011;1788;49.400;11.092;2023-02-15T09:20:18;19.63;;;8.97;;
3547;SDS011;1788;49.400;11.092;2023-02-15T09:22:46;18.40;;;8.77;;
3547;SDS011;1788;49.400;11.092;2023-02-15T09:25:12;13.83;;;8.47;;
3547;SDS011;1788;49.400;11.092;2023-02-15T09:27:39;17.43;;;8.20;;
3547;SDS011;1788;49.400;11.092;2023-02-15T09:30:06;18.30;;;9.17;;
3547;SDS011;1788;49.400;11.092;2023-02-15T09:32:32;19.63;;;8.53;;
3547;SDS011;1788;49.400;11.092;2023-02-15T09:34:59;16.03;;;9.10;;
3547;SDS011;1788;49.400;11.092;2023-02-15T09:37:26;20.57;;;9.37;;
3547;SDS011;1788;49.400;11.092;2023-02-15T09:39:53;19.87;;;10.37;;
3547;SDS011;1788;49.400;11.092;2023-02-15T09:42:24;18.00;;;7.87;;
3547;SDS011;1788;49.400;11.092;2023-02-15T09:44:50;15.00;;;7.43;;
3547;SDS011;1788;49.400;11.092;2023-02-15T10:01:56;20.40;;;9.40;;
3547;SDS011;1788;49.400;11.092;2023-02-15T10:14:18;20.33;;;8.90;;
3547;SDS011;1788;49.400;11.092;2023-02-15T10:19:03;23.57;;;10.83;;
3547;SDS011;1788;49.400;11.092;2023-02-15T10:23:58;17.50;;;9.27;;
3547;SDS011;1788;49.400;11.092;2023-02-15T10:26:21;23.47;;;10.77;;
3547;SDS011;1788;49.400;11.092;2023-02-15T10:31:20;21.60;;;10.23;;
3547;SDS011;1788;49.400;11.092;2023-02-15T10:33:42;21.20;;;9.90;;
3547;SDS011;1788;49.400;11.092;2023-02-15T10:50:51;22.13;;;10.60;;
3547;SDS011;1788;49.400;11.092;2023-02-15T10:53:20;26.77;;;12.93;;
3547;SDS011;1788;49.400;11.092;2023-02-15T10:55:47;21.27;;;10.77;;
3547;SDS011;1788;49.400;11.092;2023-02-15T10:58:14;24.00;;;12.27;;
3547;SDS011;1788;49.400;11.092;2023-02-15T11:00:40;21.97;;;11.83;;
3547;SDS011;1788;49.400;11.092;2023-02-15T11:05:35;23.57;;;11.63;;
3547;SDS011;1788;49.400;11.092;2023-02-15T11:07:59;19.00;;;10.13;;
3547;SDS011;1788;49.400;11.092;2023-02-15T11:12:51;19.83;;;10.90;;
3547;SDS011;1788;49.400;11.092;2023-02-15T11:15:20;23.77;;;11.33;;
3547;SDS011;1788;49.400;11.092;2023-02-15T11:17:46;21.77;;;12.70;;
3547;SDS011;1788;49.400;11.092;2023-02-15T11:22:39;17.90;;;9.97;;
3547;SDS011;1788;49.400;11.092;2023-02-15T11:27:33;19.13;;;10.70;;
3547;SDS011;1788;49.400;11.092;2023-02-15T11:37:21;27.00;;;12.10;;
3547;SDS011;1788;49.400;11.092;2023-02-15T11:39:47;21.07;;;11.13;;
3547;SDS011;1788;49.400;11.092;2023-02-15T11:42:15;19.13;;;10.83;;
3547;SDS011;1788;49.400;11.092;2023-02-15T11:49:34;26.03;;;11.90;;
3547;SDS011;1788;49.400;11.092;2023-02-15T11:52:02;29.10;;;16.13;;
3547;SDS011;1788;49.400;11.092;2023-02-15T11:54:28;28.07;;;12.47;;
3547;SDS011;1788;49.400;11.092;2023-02-15T11:56:55;23.43;;;12.87;;
3547;SDS011;1788;49.400;11.092;2023-02-15T12:01:47;20.37;;;11.87;;
3547;SDS011;1788;49.400;11.092;2023-02-15T12:11:36;31.60;;;16.63;;
3547;SDS011;1788;49.400;11.092;2023-02-15T12:14:02;29.33;;;14.70;;
3547;SDS011;1788;49.400;11.092;2023-02-15T12:16:28;27.40;;;13.20;;
3547;SDS011;1788;49.400;11.092;2023-02-15T12:18:55;30.30;;;15.23;;
3547;SDS011;1788;49.400;11.092;2023-02-15T12:23:50;33.80;;;16.63;;
3547;SDS011;1788;49.400;11.092;2023-02-15T12:26:15;16.70;;;10.33;;
3547;SDS011;1788;49.400;11.092;2023-02-15T12:28:42;22.40;;;11.93;;
3547;SDS011;1788;49.400;11.092;2023-02-15T12:33:35;24.33;;;14.40;;
3547;SDS011;1788;49.400;11.092;2023-02-15T12:36:03;23.70;;;13.57;;
3547;SDS011;1788;49.400;11.092;2023-02-15T12:38:28;24.80;;;12.73;;
3547;SDS011;1788;49.400;11.092;2023-02-15T12:45:50;20.77;;;10.33;;
3547;SDS011;1788;49.400;11.092;2023-02-15T12:48:17;27.03;;;14.43;;
3547;SDS011;1788;49.400;11.092;2023-02-15T12:50:44;21.73;;;10.97;;
3547;SDS011;1788;49.400;11.092;2023-02-15T12:55:36;21.00;;;12.83;;
3547;SDS011;1788;49.400;11.092;2023-02-15T13:00:29;27.90;;;15.03;;
3547;SDS011;1788;49.400;11.092;2023-02-15T13:02:56;25.10;;;15.20;;
3547;SDS011;1788;49.400;11.092;2023-02-15T13:12:42;30.87;;;14.83;;
3547;SDS011;1788;49.400;11.092;2023-02-15T13:15:22;29.23;;;15.40;;
3547;SDS011;1788;49.400;11.092;2023-02-15T13:17:36;25.03;;;14.07;;
3547;SDS011;1788;49.400;11.092;2023-02-15T13:20:04;31.47;;;15.47;;
3547;SDS011;1788;49.400;11.092;2023-02-15T13:22:32;36.63;;;17.90;;
3547;SDS011;1788;49.400;11.092;2023-02-15T13:24:56;40.63;;;18.67;;
3547;SDS011;1788;49.400;11.092;2023-02-15T13:27:23;34.77;;;17.17;;
3547;SDS011;1788;49.400;11.092;2023-02-15T13:34:42;32.20;;;17.77;;
3547;SDS011;1788;49.400;11.092;2023-02-15T13:47:01;36.57;;;16.73;;
3547;SDS011;1788;49.400;11.092;2023-02-15T14:11:27;26.70;;;14.37;;
3547;SDS011;1788;49.400;11.092;2023-02-15T14:30:58;24.73;;;16.13;;
3547;SDS011;1788;49.400;11.092;2023-02-15T14:33:28;25.30;;;15.57;;
3547;SDS011;1788;49.400;11.092;2023-02-15T14:35:52;29.77;;;15.97;;
3547;SDS011;1788;49.400;11.092;2023-02-15T14:43:15;26.03;;;15.20;;
3547;SDS011;1788;49.400;11.092;2023-02-15T14:45:40;23.80;;;15.37;;
3547;SDS011;1788;49.400;11.092;2023-02-15T14:57:56;27.23;;;16.30;;
3547;SDS011;1788;49.400;11.092;2023-02-15T15:02:50;32.13;;;17.27;;
3547;SDS011;1788;49.400;11.092;2023-02-15T15:07:45;24.70;;;16.37;;
3547;SDS011;1788;49.400;11.092;2023-02-15T15:12:37;27.13;;;15.87;;
3547;SDS011;1788;49.400;11.092;2023-02-15T15:15:04;27.67;;;17.17;;
3547;SDS011;1788;49.400;11.092;2023-02-15T15:22:25;30.80;;;16.27;;
3547;SDS011;1788;49.400;11.092;2023-02-15T15:29:46;29.27;;;16.17;;
3547;SDS011;1788;49.400;11.092;2023-02-15T15:32:13;30.23;;;15.60;;
3547;SDS011;1788;49.400;11.092;2023-02-15T15:49:22;29.03;;;16.73;;
3547;SDS011;1788;49.400;11.092;2023-02-15T15:51:49;32.90;;;15.63;;
3547;SDS011;1788;49.400;11.092;2023-02-15T15:54:18;31.33;;;15.47;;
3547;SDS011;1788;49.400;11.092;2023-02-15T15:56:46;30.83;;;16.50;;
3547;SDS011;1788;49.400;11.092;2023-02-15T16:01:39;31.40;;;16.70;;
3547;SDS011;1788;49.400;11.092;2023-02-15T16:04:04;37.20;;;16.97;;
3547;SDS011;1788;49.400;11.092;2023-02-15T16:06:33;30.63;;;16.00;;
3547;SDS011;1788;49.400;11.092;2023-02-15T16:08:58;39.10;;;17.63;;
3547;SDS011;1788;49.400;11.092;2023-02-15T16:11:24;34.57;;;17.07;;
3547;SDS011;1788;49.400;11.092;2023-02-15T16:13:50;33.23;;;16.97;;
3547;SDS011;1788;49.400;11.092;2023-02-15T16:18:44;35.67;;;16.07;;
3547;SDS011;1788;49.400;11.092;2023-02-15T16:28:32;35.90;;;16.83;;
3547;SDS011;1788;49.400;11.092;2023-02-15T16:33:33;34.13;;;16.27;;
3547;SDS011;1788;49.400;11.092;2023-02-15T16:35:54;35.57;;;17.17;;
3547;SDS011;1788;49.400;11.092;2023-02-15T16:38:21;31.63;;;15.77;;
3547;SDS011;1788;49.400;11.092;2023-02-15T16:40:48;35.47;;;17.10;;
3547;SDS011;1788;49.400;11.092;2023-02-15T16:43:15;33.73;;;17.80;;
3547;SDS011;1788;49.400;11.092;2023-02-15T16:45:41;32.93;;;16.17;;
3547;SDS011;1788;49.400;11.092;2023-02-15T16:48:11;38.23;;;16.80;;
3547;SDS011;1788;49.400;11.092;2023-02-15T16:50:36;32.73;;;16.43;;
3547;SDS011;1788;49.400;11.092;2023-02-15T16:53:02;34.63;;;16.97;;
3547;SDS011;1788;49.400;11.092;2023-02-15T16:55:30;33.00;;;15.77;;
3547;SDS011;1788;49.400;11.092;2023-02-15T16:57:57;39.80;;;18.70;;
3547;SDS011;1788;49.400;11.092;2023-02-15T17:00:22;36.70;;;17.77;;
3547;SDS011;1788;49.400;11.092;2023-02-15T17:05:16;37.40;;;16.73;;
3547;SDS011;1788;49.400;11.092;2023-02-15T17:15:03;42.23;;;19.83;;
3547;SDS011;1788;49.400;11.092;2023-02-15T17:17:30;41.70;;;17.87;;
3547;SDS011;1788;49.400;11.092;2023-02-15T17:19:56;37.23;;;16.53;;
3547;SDS011;1788;49.400;11.092;2023-02-15T17:22:24;35.37;;;18.10;;
3547;SDS011;1788;49.400;11.092;2023-02-15T17:24:50;41.10;;;20.27;;
3547;SDS011;1788;49.400;11.092;2023-02-15T17:27:18;36.60;;;16.73;;
3547;SDS011;1788;49.400;11.092;2023-02-15T17:29:45;37.83;;;17.17;;
3547;SDS011;1788;49.400;11.092;2023-02-15T17:37:09;42.33;;;16.67;;
3547;SDS011;1788;49.400;11.092;2023-02-15T17:39:32;45.17;;;18.67;;
3547;SDS011;1788;49.400;11.092;2023-02-15T17:41:58;39.23;;;19.37;;
3547;SDS011;1788;49.400;11.092;2023-02-15T17:44:25;40.07;;;18.87;;
3547;SDS011;1788;49.400;11.092;2023-02-15T17:46:53;36.63;;;17.73;;
3547;SDS011;1788;49.400;11.092;2023-02-15T17:51:47;43.30;;;18.83;;
3547;SDS011;1788;49.400;11.092;2023-02-15T17:54:14;35.27;;;17.83;;
3547;SDS011;1788;49.400;11.092;2023-02-15T17:56:41;40.60;;;16.47;;
3547;SDS011;1788;49.400;11.092;2023-02-15T17:59:08;38.87;;;17.80;;
3547;SDS011;1788;49.400;11.092;2023-02-15T18:01:36;43.10;;;18.97;;
3547;SDS011;1788;49.400;11.092;2023-02-15T18:04:02;37.70;;;19.03;;
3547;SDS011;1788;49.400;11.092;2023-02-15T18:06:29;43.07;;;19.67;;
3547;SDS011;1788;49.400;11.092;2023-02-15T18:08:56;45.60;;;20.40;;
3547;SDS011;1788;49.400;11.092;2023-02-15T18:11:23;44.70;;;20.73;;
3547;SDS011;1788;49.400;11.092;2023-02-15T18:13:50;47.90;;;20.47;;
3547;SDS011;1788;49.400;11.092;2023-02-15T18:18:43;39.13;;;17.93;;
3547;SDS011;1788;49.400;11.092;2023-02-15T18:21:11;43.90;;;18.80;;
3547;SDS011;1788;49.400;11.092;2023-02-15T18:23:38;54.17;;;23.00;;
3547;SDS011;1788;49.400;11.092;2023-02-15T18:26:05;41.73;;;20.20;;
3547;SDS011;1788;49.400;11.092;2023-02-15T18:28:32;51.90;;;20.97;;
3547;SDS011;1788;49.400;11.092;2023-02-15T18:30:59;44.87;;;20.73;;
3547;SDS011;1788;49.400;11.092;2023-02-15T18:35:52;49.90;;;19.67;;
3547;SDS011;1788;49.400;11.092;2023-02-15T18:38:19;48.70;;;20.67;;
3547;SDS011;1788;49.400;11.092;2023-02-15T18:40:45;39.63;;;18.63;;
3547;SDS011;1788;49.400;11.092;2023-02-15T18:43:13;49.90;;;19.43;;
3547;SDS011;1788;49.400;11.092;2023-02-15T18:45:39;42.43;;;20.60;;
3547;SDS011;1788;49.400;11.092;2023-02-15T18:48:07;44.50;;;19.17;;
3547;SDS011;1788;49.400;11.092;2023-02-15T18:50:33;49.70;;;21.13;;
3547;SDS011;1788;49.400;11.092;2023-02-15T18:53:01;47.17;;;22.50;;
3547;SDS011;1788;49.400;11.092;2023-02-15T18:55:28;51.93;;;21.63;;
3547;SDS011;1788;49.400;11.092;2023-02-15T18:57:55;45.53;;;19.03;;
3547;SDS011;1788;49.400;11.092;2023-02-15T19:02:48;42.50;;;21.00;;
3547;SDS011;1788;49.400;11.092;2023-02-15T19:07:42;46.97;;;21.03;;
3547;SDS011;1788;49.400;11.092;2023-02-15T19:10:10;41.23;;;20.57;;
3547;SDS011;1788;49.400;11.092;2023-02-15T19:12:36;40.73;;;18.77;;
3547;SDS011;1788;49.400;11.092;2023-02-15T19:15:03;43.37;;;19.80;;
3547;SDS011;1788;49.400;11.092;2023-02-15T19:17:30;42.13;;;18.37;;
3547;SDS011;1788;49.400;11.092;2023-02-15T19:19:56;40.17;;;20.13;;
3547;SDS011;1788;49.400;11.092;2023-02-15T19:22:25;46.13;;;21.37;;